sensor_id;sensor_type;location;lat;lon;timestamp;P1;durP1;ratioP1;P2;durP2;ratioP2
44204;SDS011;30163;42.698;23.344;2023-05-18T00:01:56;4.90;;;2.35;;
44204;SDS011;30163;42.698;23.344;2023-05-18T00:04:22;4.00;;;2.33;;
44204;SDS011;30163;42.698;23.344;2023-05-18T00:06:51;5.72;;;2.97;;
44204;SDS011;30163;42.698;23.344;2023-05-18T00:09:28;6.57;;;2.80;;
44204;SDS011;30163;42.698;23.344;2023-05-18T00:11:54;4.72;;;3.05;;
44204;SDS011;30163;42.698;23.344;2023-05-18T00:14:20;4.78;;;2.63;;
44204;SDS011;30163;42.698;23.344;2023-05-18T00:16:46;2.97;;;2.03;;
44204;SDS011;30163;42.698;23.344;2023-05-18T00:19:12;3.25;;;2.10;;
44204;SDS011;30163;42.698;23.344;2023-05-18T00:21:41;4.60;;;2.17;;
44204;SDS011;30163;42.698;23.344;2023-05-18T00:24:09;2.05;;;1.70;;
44204;SDS011;30163;42.698;23.344;2023-05-18T00:26:39;2.53;;;1.50;;
44204;SDS011;30163;42.698;23.344;2023-05-18T00:29:05;2.80;;;1.65;;
44204;SDS011;30163;42.698;23.344;2023-05-18T00:31:31;2.63;;;1.50;;
44204;SDS011;30163;42.698;23.344;2023-05-18T00:34:09;2.50;;;1.60;;
44204;SDS011;30163;42.698;23.344;2023-05-18T00:36:36;1.60;;;1.40;;
44204;SDS011;30163;42.698;23.344;2023-05-18T00:39:02;2.67;;;1.63;;
44204;SDS011;30163;42.698;23.344;2023-05-18T00:41:29;8.52;;;1.60;;
44204;SDS011;30163;42.698;23.344;2023-05-18T00:43:55;3.28;;;1.60;;
44204;SDS011;30163;42.698;23.344;2023-05-18T00:46:22;2.83;;;1.55;;
44204;SDS011;30163;42.698;23.344;2023-05-18T00:48:48;3.95;;;2.35;;
44204;SDS011;30163;42.698;23.344;2023-05-18T00:51:15;3.70;;;2.33;;
44204;SDS011;30163;42.698;23.344;2023-05-18T00:53:41;3.90;;;2.50;;
44204;SDS011;30163;42.698;23.344;2023-05-18T00:56:07;5.00;;;2.58;;
44204;SDS011;30163;42.698;23.344;2023-05-18T00:58:35;5.03;;;2.90;;
44204;SDS011;30163;42.698;23.344;2023-05-18T01:01:01;4.60;;;2.50;;
44204;SDS011;30163;42.698;23.344;2023-05-18T01:03:27;5.15;;;2.67;;
44204;SDS011;30163;42.698;23.344;2023-05-18T01:05:54;5.03;;;2.35;;
44204;SDS011;30163;42.698;23.344;2023-05-18T01:08:22;4.18;;;2.67;;
44204;SDS011;30163;42.698;23.344;2023-05-18T01:11:10;6.07;;;2.83;;
44204;SDS011;30163;42.698;23.344;2023-05-18T01:25:04;4.13;;;2.30;;
44204;SDS011;30163;42.698;23.344;2023-05-18T01:27:38;4.00;;;2.03;;
44204;SDS011;30163;42.698;23.344;2023-05-18T01:30:06;12.77;;;2.28;;
44204;SDS011;30163;42.698;23.344;2023-05-18T01:32:38;3.97;;;1.83;;
44204;SDS011;30163;42.698;23.344;2023-05-18T01:35:04;2.47;;;1.60;;
44204;SDS011;30163;42.698;23.344;2023-05-18T01:37:30;2.28;;;1.88;;
44204;SDS011;30163;42.698;23.344;2023-05-18T01:39:55;2.88;;;2.10;;
44204;SDS011;30163;42.698;23.344;2023-05-18T01:42:23;3.35;;;2.10;;
44204;SDS011;30163;42.698;23.344;2023-05-18T01:44:52;2.88;;;2.03;;
44204;SDS011;30163;42.698;23.344;2023-05-18T01:47:19;9.63;;;2.15;;
44204;SDS011;30163;42.698;23.344;2023-05-18T01:50:05;4.57;;;2.60;;
44204;SDS011;30163;42.698;23.344;2023-05-18T01:55:14;3.67;;;2.28;;
44204;SDS011;30163;42.698;23.344;2023-05-18T01:57:43;3.03;;;2.22;;
44204;SDS011;30163;42.698;23.344;2023-05-18T02:00:10;3.03;;;2.10;;
44204;SDS011;30163;42.698;23.344;2023-05-18T02:02:36;5.18;;;2.72;;
44204;SDS011;30163;42.698;23.344;2023-05-18T02:05:01;3.58;;;2.70;;
44204;SDS011;30163;42.698;23.344;2023-05-18T02:07:29;2.83;;;2.05;;
44204;SDS011;30163;42.698;23.344;2023-05-18T02:09:55;4.88;;;2.58;;
44204;SDS011;30163;42.698;23.344;2023-05-18T02:12:20;4.60;;;2.70;;
44204;SDS011;30163;42.698;23.344;2023-05-18T02:14:46;3.78;;;2.45;;
44204;SDS011;30163;42.698;23.344;2023-05-18T02:17:11;3.42;;;2.55;;
44204;SDS011;30163;42.698;23.344;2023-05-18T02:19:37;3.72;;;2.70;;
44204;SDS011;30163;42.698;23.344;2023-05-18T02:22:04;4.75;;;2.92;;
44204;SDS011;30163;42.698;23.344;2023-05-18T02:24:31;4.25;;;2.42;;
44204;SDS011;30163;42.698;23.344;2023-05-18T02:26:57;5.05;;;2.90;;
44204;SDS011;30163;42.698;23.344;2023-05-18T02:29:22;4.22;;;3.03;;
44204;SDS011;30163;42.698;23.344;2023-05-18T02:31:48;4.50;;;2.78;;
44204;SDS011;30163;42.698;23.344;2023-05-18T02:34:13;4.63;;;2.33;;
44204;SDS011;30163;42.698;23.344;2023-05-18T02:36:39;4.40;;;2.60;;
44204;SDS011;30163;42.698;23.344;2023-05-18T02:39:06;3.78;;;2.30;;
44204;SDS011;30163;42.698;23.344;2023-05-18T02:41:35;2.92;;;2.08;;
44204;SDS011;30163;42.698;23.344;2023-05-18T02:44:02;4.13;;;1.98;;
44204;SDS011;30163;42.698;23.344;2023-05-18T02:46:28;3.00;;;1.83;;
44204;SDS011;30163;42.698;23.344;2023-05-18T02:48:53;3.08;;;2.13;;
44204;SDS011;30163;42.698;23.344;2023-05-18T02:51:19;2.85;;;1.85;;
44204;SDS011;30163;42.698;23.344;2023-05-18T02:53:46;10.55;;;2.08;;
44204;SDS011;30163;42.698;23.344;2023-05-18T02:56:11;2.58;;;2.10;;
44204;SDS011;30163;42.698;23.344;2023-05-18T02:58:37;3.42;;;2.22;;
44204;SDS011;30163;42.698;23.344;2023-05-18T03:01:04;3.38;;;2.40;;
44204;SDS011;30163;42.698;23.344;2023-05-18T03:03:34;2.47;;;1.73;;
44204;SDS011;30163;42.698;23.344;2023-05-18T03:06:00;2.97;;;2.05;;
44204;SDS011;30163;42.698;23.344;2023-05-18T03:08:28;3.13;;;2.25;;
44204;SDS011;30163;42.698;23.344;2023-05-18T03:10:55;3.35;;;2.08;;
44204;SDS011;30163;42.698;23.344;2023-05-18T03:13:21;8.82;;;2.22;;
44204;SDS011;30163;42.698;23.344;2023-05-18T03:15:47;3.50;;;2.10;;
44204;SDS011;30163;42.698;23.344;2023-05-18T03:18:15;4.22;;;2.33;;
44204;SDS011;30163;42.698;23.344;2023-05-18T03:20:41;2.63;;;2.13;;
44204;SDS011;30163;42.698;23.344;2023-05-18T03:23:07;7.32;;;2.53;;
44204;SDS011;30163;42.698;23.344;2023-05-18T03:25:33;3.40;;;2.30;;
44204;SDS011;30163;42.698;23.344;2023-05-18T03:28:01;3.78;;;2.50;;
44204;SDS011;30163;42.698;23.344;2023-05-18T03:30:29;3.88;;;2.85;;
44204;SDS011;30163;42.698;23.344;2023-05-18T03:32:58;9.63;;;3.40;;
44204;SDS011;30163;42.698;23.344;2023-05-18T03:35:25;5.75;;;3.47;;
44204;SDS011;30163;42.698;23.344;2023-05-18T03:37:51;5.07;;;3.10;;
44204;SDS011;30163;42.698;23.344;2023-05-18T03:40:17;9.15;;;3.88;;
44204;SDS011;30163;42.698;23.344;2023-05-18T03:42:44;5.65;;;3.78;;
44204;SDS011;30163;42.698;23.344;2023-05-18T03:45:10;8.20;;;4.88;;
44204;SDS011;30163;42.698;23.344;2023-05-18T03:47:36;9.70;;;4.90;;
44204;SDS011;30163;42.698;23.344;2023-05-18T03:50:03;9.07;;;4.30;;
44204;SDS011;30163;42.698;23.344;2023-05-18T03:52:30;7.38;;;4.78;;
44204;SDS011;30163;42.698;23.344;2023-05-18T03:54:58;7.80;;;4.38;;
44204;SDS011;30163;42.698;23.344;2023-05-18T03:57:24;8.20;;;4.45;;
44204;SDS011;30163;42.698;23.344;2023-05-18T03:59:51;7.05;;;4.32;;
44204;SDS011;30163;42.698;23.344;2023-05-18T04:02:16;16.60;;;4.05;;
44204;SDS011;30163;42.698;23.344;2023-05-18T04:04:42;6.57;;;4.05;;
44204;SDS011;30163;42.698;23.344;2023-05-18T04:07:13;6.35;;;3.88;;
44204;SDS011;30163;42.698;23.344;2023-05-18T04:09:42;7.65;;;5.18;;
44204;SDS011;30163;42.698;23.344;2023-05-18T04:12:08;9.13;;;4.90;;
44204;SDS011;30163;42.698;23.344;2023-05-18T04:14:34;6.22;;;4.47;;
44204;SDS011;30163;42.698;23.344;2023-05-18T04:17:00;9.15;;;5.72;;
44204;SDS011;30163;42.698;23.344;2023-05-18T04:19:32;7.80;;;5.57;;
44204;SDS011;30163;42.698;23.344;2023-05-18T04:21:58;7.63;;;5.50;;
44204;SDS011;30163;42.698;23.344;2023-05-18T04:24:24;10.68;;;5.43;;
44204;SDS011;30163;42.698;23.344;2023-05-18T04:26:51;10.20;;;6.10;;
44204;SDS011;30163;42.698;23.344;2023-05-18T04:29:17;8.23;;;5.55;;
44204;SDS011;30163;42.698;23.344;2023-05-18T04:31:46;19.50;;;10.18;;
44204;SDS011;30163;42.698;23.344;2023-05-18T04:34:12;12.02;;;6.93;;
44204;SDS011;30163;42.698;23.344;2023-05-18T04:36:38;11.90;;;6.22;;
44204;SDS011;30163;42.698;23.344;2023-05-18T04:39:06;8.38;;;6.88;;
44204;SDS011;30163;42.698;23.344;2023-05-18T04:41:33;11.45;;;6.63;;
44204;SDS011;30163;42.698;23.344;2023-05-18T04:43:59;11.43;;;6.78;;
44204;SDS011;30163;42.698;23.344;2023-05-18T04:46:28;9.32;;;6.10;;
44204;SDS011;30163;42.698;23.344;2023-05-18T04:48:54;11.70;;;6.53;;
44204;SDS011;30163;42.698;23.344;2023-05-18T04:51:22;8.88;;;5.75;;
44204;SDS011;30163;42.698;23.344;2023-05-18T04:53:49;9.95;;;7.00;;
44204;SDS011;30163;42.698;23.344;2023-05-18T04:56:15;9.35;;;5.97;;
44204;SDS011;30163;42.698;23.344;2023-05-18T04:58:41;10.30;;;5.82;;
44204;SDS011;30163;42.698;23.344;2023-05-18T05:01:12;14.38;;;6.38;;
44204;SDS011;30163;42.698;23.344;2023-05-18T05:03:41;9.75;;;5.60;;
44204;SDS011;30163;42.698;23.344;2023-05-18T05:06:07;9.43;;;5.82;;
44204;SDS011;30163;42.698;23.344;2023-05-18T05:08:33;13.68;;;5.93;;
44204;SDS011;30163;42.698;23.344;2023-05-18T05:10:59;10.65;;;6.50;;
44204;SDS011;30163;42.698;23.344;2023-05-18T05:13:25;9.82;;;6.07;;
44204;SDS011;30163;42.698;23.344;2023-05-18T05:15:51;9.13;;;5.75;;
44204;SDS011;30163;42.698;23.344;2023-05-18T05:18:16;11.98;;;5.32;;
44204;SDS011;30163;42.698;23.344;2023-05-18T05:20:42;11.50;;;5.80;;
44204;SDS011;30163;42.698;23.344;2023-05-18T05:23:07;15.63;;;6.95;;
44204;SDS011;30163;42.698;23.344;2023-05-18T05:25:33;14.00;;;6.63;;
44204;SDS011;30163;42.698;23.344;2023-05-18T05:27:59;13.27;;;8.15;;
44204;SDS011;30163;42.698;23.344;2023-05-18T05:30:24;16.70;;;8.02;;
44204;SDS011;30163;42.698;23.344;2023-05-18T05:32:50;11.38;;;7.10;;
44204;SDS011;30163;42.698;23.344;2023-05-18T05:35:17;19.52;;;8.30;;
44204;SDS011;30163;42.698;23.344;2023-05-18T05:37:43;17.27;;;8.57;;
44204;SDS011;30163;42.698;23.344;2023-05-18T05:40:09;24.20;;;10.45;;
44204;SDS011;30163;42.698;23.344;2023-05-18T05:42:35;21.50;;;10.20;;
44204;SDS011;30163;42.698;23.344;2023-05-18T05:45:01;16.35;;;9.95;;
44204;SDS011;30163;42.698;23.344;2023-05-18T05:47:26;17.58;;;10.20;;
44204;SDS011;30163;42.698;23.344;2023-05-18T05:49:52;19.70;;;9.77;;
44204;SDS011;30163;42.698;23.344;2023-05-18T05:52:18;14.00;;;7.60;;
44204;SDS011;30163;42.698;23.344;2023-05-18T05:54:44;15.77;;;8.88;;
44204;SDS011;30163;42.698;23.344;2023-05-18T05:57:10;16.40;;;10.48;;
44204;SDS011;30163;42.698;23.344;2023-05-18T05:59:35;23.85;;;12.68;;
44204;SDS011;30163;42.698;23.344;2023-05-18T06:02:01;17.45;;;9.38;;
44204;SDS011;30163;42.698;23.344;2023-05-18T06:04:27;16.65;;;8.80;;
44204;SDS011;30163;42.698;23.344;2023-05-18T06:06:52;13.20;;;8.63;;
44204;SDS011;30163;42.698;23.344;2023-05-18T06:09:18;16.83;;;7.82;;
44204;SDS011;30163;42.698;23.344;2023-05-18T06:11:44;15.43;;;8.82;;
44204;SDS011;30163;42.698;23.344;2023-05-18T06:14:10;15.25;;;8.43;;
44204;SDS011;30163;42.698;23.344;2023-05-18T06:16:36;15.38;;;8.10;;
44204;SDS011;30163;42.698;23.344;2023-05-18T06:19:02;15.95;;;7.28;;
44204;SDS011;30163;42.698;23.344;2023-05-18T06:21:28;13.95;;;7.30;;
44204;SDS011;30163;42.698;23.344;2023-05-18T06:23:54;10.38;;;6.90;;
44204;SDS011;30163;42.698;23.344;2023-05-18T06:26:20;12.88;;;8.05;;
44204;SDS011;30163;42.698;23.344;2023-05-18T06:28:47;16.38;;;8.13;;
44204;SDS011;30163;42.698;23.344;2023-05-18T06:31:13;15.02;;;8.30;;
44204;SDS011;30163;42.698;23.344;2023-05-18T06:33:39;16.10;;;9.05;;
44204;SDS011;30163;42.698;23.344;2023-05-18T06:36:05;12.23;;;7.35;;
44204;SDS011;30163;42.698;23.344;2023-05-18T06:38:31;12.93;;;7.70;;
44204;SDS011;30163;42.698;23.344;2023-05-18T06:40:57;10.02;;;6.63;;
44204;SDS011;30163;42.698;23.344;2023-05-18T06:43:22;12.63;;;7.82;;
44204;SDS011;30163;42.698;23.344;2023-05-18T06:45:53;11.05;;;7.50;;
44204;SDS011;30163;42.698;23.344;2023-05-18T06:48:19;16.60;;;6.57;;
44204;SDS011;30163;42.698;23.344;2023-05-18T06:50:45;12.40;;;6.75;;
44204;SDS011;30163;42.698;23.344;2023-05-18T06:53:10;10.27;;;6.22;;
44204;SDS011;30163;42.698;23.344;2023-05-18T06:55:37;13.88;;;7.05;;
44204;SDS011;30163;42.698;23.344;2023-05-18T06:58:03;18.60;;;7.07;;
44204;SDS011;30163;42.698;23.344;2023-05-18T07:00:28;12.90;;;6.88;;
44204;SDS011;30163;42.698;23.344;2023-05-18T07:02:54;22.35;;;7.15;;
44204;SDS011;30163;42.698;23.344;2023-05-18T07:05:19;13.77;;;7.18;;
44204;SDS011;30163;42.698;23.344;2023-05-18T07:07:45;13.23;;;7.05;;
44204;SDS011;30163;42.698;23.344;2023-05-18T07:10:11;18.23;;;8.18;;
44204;SDS011;30163;42.698;23.344;2023-05-18T07:12:37;17.95;;;7.78;;
44204;SDS011;30163;42.698;23.344;2023-05-18T07:15:03;12.10;;;8.02;;
44204;SDS011;30163;42.698;23.344;2023-05-18T07:17:29;21.55;;;8.25;;
44204;SDS011;30163;42.698;23.344;2023-05-18T07:19:55;18.52;;;8.95;;
44204;SDS011;30163;42.698;23.344;2023-05-18T07:22:20;20.88;;;8.98;;
44204;SDS011;30163;42.698;23.344;2023-05-18T07:24:46;21.63;;;9.15;;
44204;SDS011;30163;42.698;23.344;2023-05-18T07:27:12;37.67;;;10.15;;
44204;SDS011;30163;42.698;23.344;2023-05-18T07:29:38;14.75;;;8.93;;
44204;SDS011;30163;42.698;23.344;2023-05-18T07:32:03;24.00;;;8.57;;
44204;SDS011;30163;42.698;23.344;2023-05-18T07:34:29;20.77;;;9.35;;
44204;SDS011;30163;42.698;23.344;2023-05-18T07:36:55;29.45;;;9.82;;
44204;SDS011;30163;42.698;23.344;2023-05-18T07:39:21;23.40;;;9.13;;
44204;SDS011;30163;42.698;23.344;2023-05-18T07:41:52;12.45;;;8.05;;
44204;SDS011;30163;42.698;23.344;2023-05-18T07:44:18;11.82;;;7.43;;
44204;SDS011;30163;42.698;23.344;2023-05-18T07:46:44;20.08;;;9.07;;
44204;SDS011;30163;42.698;23.344;2023-05-18T07:49:09;16.00;;;8.27;;
44204;SDS011;30163;42.698;23.344;2023-05-18T07:51:35;15.05;;;8.23;;
44204;SDS011;30163;42.698;23.344;2023-05-18T07:54:01;16.23;;;7.53;;
44204;SDS011;30163;42.698;23.344;2023-05-18T07:56:27;26.92;;;8.43;;
44204;SDS011;30163;42.698;23.344;2023-05-18T07:58:53;20.30;;;8.27;;
44204;SDS011;30163;42.698;23.344;2023-05-18T08:01:21;17.15;;;7.55;;
44204;SDS011;30163;42.698;23.344;2023-05-18T08:03:51;21.23;;;9.02;;
44204;SDS011;30163;42.698;23.344;2023-05-18T08:06:17;25.88;;;8.77;;
44204;SDS011;30163;42.698;23.344;2023-05-18T08:08:43;13.68;;;7.15;;
44204;SDS011;30163;42.698;23.344;2023-05-18T08:11:08;13.70;;;7.30;;
44204;SDS011;30163;42.698;23.344;2023-05-18T08:13:34;23.45;;;9.52;;
44204;SDS011;30163;42.698;23.344;2023-05-18T08:16:00;17.50;;;8.05;;
44204;SDS011;30163;42.698;23.344;2023-05-18T08:18:25;17.38;;;7.32;;
44204;SDS011;30163;42.698;23.344;2023-05-18T08:20:51;19.52;;;8.23;;
44204;SDS011;30163;42.698;23.344;2023-05-18T08:23:18;16.88;;;7.97;;
44204;SDS011;30163;42.698;23.344;2023-05-18T08:25:44;19.73;;;8.77;;
44204;SDS011;30163;42.698;23.344;2023-05-18T08:28:09;14.32;;;8.20;;
44204;SDS011;30163;42.698;23.344;2023-05-18T08:30:35;20.25;;;7.93;;
44204;SDS011;30163;42.698;23.344;2023-05-18T08:33:00;16.38;;;7.00;;
44204;SDS011;30163;42.698;23.344;2023-05-18T08:35:27;21.88;;;7.63;;
44204;SDS011;30163;42.698;23.344;2023-05-18T08:37:53;25.35;;;8.43;;
44204;SDS011;30163;42.698;23.344;2023-05-18T08:40:19;22.77;;;7.43;;
44204;SDS011;30163;42.698;23.344;2023-05-18T08:48:05;17.52;;;8.07;;
44204;SDS011;30163;42.698;23.344;2023-05-18T08:50:32;18.98;;;7.82;;
44204;SDS011;30163;42.698;23.344;2023-05-18T08:52:59;16.13;;;7.90;;
44204;SDS011;30163;42.698;23.344;2023-05-18T08:55:27;20.80;;;7.88;;
44204;SDS011;30163;42.698;23.344;2023-05-18T08:57:54;17.75;;;8.25;;
44204;SDS011;30163;42.698;23.344;2023-05-18T09:00:24;14.63;;;8.45;;
44204;SDS011;30163;42.698;23.344;2023-05-18T09:02:50;13.25;;;7.43;;
44204;SDS011;30163;42.698;23.344;2023-05-18T09:05:16;36.63;;;16.95;;
44204;SDS011;30163;42.698;23.344;2023-05-18T09:07:45;18.77;;;10.25;;
44204;SDS011;30163;42.698;23.344;2023-05-18T09:10:11;20.30;;;9.55;;
44204;SDS011;30163;42.698;23.344;2023-05-18T09:12:40;18.67;;;10.23;;
44204;SDS011;30163;42.698;23.344;2023-05-18T09:15:10;27.60;;;13.02;;
44204;SDS011;30163;42.698;23.344;2023-05-18T09:17:36;27.75;;;13.68;;
44204;SDS011;30163;42.698;23.344;2023-05-18T09:20:02;24.55;;;12.20;;
44204;SDS011;30163;42.698;23.344;2023-05-18T09:22:31;25.35;;;11.80;;
44204;SDS011;30163;42.698;23.344;2023-05-18T09:24:59;27.08;;;9.00;;
44204;SDS011;30163;42.698;23.344;2023-05-18T09:27:26;18.25;;;8.88;;
44204;SDS011;30163;42.698;23.344;2023-05-18T09:29:52;17.88;;;6.18;;
44204;SDS011;30163;42.698;23.344;2023-05-18T09:32:19;19.88;;;7.80;;
44204;SDS011;30163;42.698;23.344;2023-05-18T09:34:45;15.75;;;7.97;;
44204;SDS011;30163;42.698;23.344;2023-05-18T09:37:14;12.00;;;7.70;;
44204;SDS011;30163;42.698;23.344;2023-05-18T09:39:41;14.63;;;7.30;;
44204;SDS011;30163;42.698;23.344;2023-05-18T09:42:07;23.15;;;8.80;;
44204;SDS011;30163;42.698;23.344;2023-05-18T09:44:32;15.13;;;8.65;;
44204;SDS011;30163;42.698;23.344;2023-05-18T09:46:58;18.00;;;8.25;;
44204;SDS011;30163;42.698;23.344;2023-05-18T09:49:25;15.45;;;7.63;;
44204;SDS011;30163;42.698;23.344;2023-05-18T09:51:53;20.63;;;10.25;;
44204;SDS011;30163;42.698;23.344;2023-05-18T09:54:19;14.13;;;8.98;;
44204;SDS011;30163;42.698;23.344;2023-05-18T09:56:45;17.23;;;10.00;;
44204;SDS011;30163;42.698;23.344;2023-05-18T09:59:11;19.85;;;8.20;;
44204;SDS011;30163;42.698;23.344;2023-05-18T10:02:11;18.42;;;8.35;;
44204;SDS011;30163;42.698;23.344;2023-05-18T10:07:01;23.35;;;10.43;;
44204;SDS011;30163;42.698;23.344;2023-05-18T10:09:27;24.95;;;10.05;;
44204;SDS011;30163;42.698;23.344;2023-05-18T10:11:53;19.05;;;9.38;;
44204;SDS011;30163;42.698;23.344;2023-05-18T10:14:22;13.80;;;8.55;;
44204;SDS011;30163;42.698;23.344;2023-05-18T10:16:50;18.42;;;8.48;;
44204;SDS011;30163;42.698;23.344;2023-05-18T10:19:16;14.48;;;8.25;;
44204;SDS011;30163;42.698;23.344;2023-05-18T10:21:42;16.67;;;8.38;;
44204;SDS011;30163;42.698;23.344;2023-05-18T10:24:08;22.95;;;10.48;;
44204;SDS011;30163;42.698;23.344;2023-05-18T10:26:36;19.23;;;9.45;;
44204;SDS011;30163;42.698;23.344;2023-05-18T10:29:03;21.08;;;9.90;;
44204;SDS011;30163;42.698;23.344;2023-05-18T10:31:30;21.23;;;9.32;;
44204;SDS011;30163;42.698;23.344;2023-05-18T10:33:56;17.27;;;8.60;;
44204;SDS011;30163;42.698;23.344;2023-05-18T10:36:23;14.18;;;7.57;;
44204;SDS011;30163;42.698;23.344;2023-05-18T10:38:49;18.33;;;8.30;;
44204;SDS011;30163;42.698;23.344;2023-05-18T10:41:16;15.60;;;8.02;;
44204;SDS011;30163;42.698;23.344;2023-05-18T10:43:43;12.48;;;7.90;;
44204;SDS011;30163;42.698;23.344;2023-05-18T10:46:10;16.55;;;10.05;;
44204;SDS011;30163;42.698;23.344;2023-05-18T10:48:38;14.82;;;6.93;;
44204;SDS011;30163;42.698;23.344;2023-05-18T10:51:05;16.90;;;8.10;;
44204;SDS011;30163;42.698;23.344;2023-05-18T10:53:32;16.30;;;8.57;;
44204;SDS011;30163;42.698;23.344;2023-05-18T10:55:58;13.55;;;8.52;;
44204;SDS011;30163;42.698;23.344;2023-05-18T10:58:24;15.52;;;8.45;;
44204;SDS011;30163;42.698;23.344;2023-05-18T11:00:51;20.33;;;8.30;;
44204;SDS011;30163;42.698;23.344;2023-05-18T11:03:19;19.45;;;9.68;;
44204;SDS011;30163;42.698;23.344;2023-05-18T11:06:04;16.40;;;8.93;;
44204;SDS011;30163;42.698;23.344;2023-05-18T11:08:55;14.43;;;8.82;;
44204;SDS011;30163;42.698;23.344;2023-05-18T11:11:23;18.38;;;8.38;;
44204;SDS011;30163;42.698;23.344;2023-05-18T11:14:01;15.38;;;8.02;;
44204;SDS011;30163;42.698;23.344;2023-05-18T11:16:34;15.55;;;8.75;;
44204;SDS011;30163;42.698;23.344;2023-05-18T11:19:04;19.15;;;8.93;;
44204;SDS011;30163;42.698;23.344;2023-05-18T11:26:42;16.15;;;8.48;;
44204;SDS011;30163;42.698;23.344;2023-05-18T11:32:01;14.73;;;8.88;;
44204;SDS011;30163;42.698;23.344;2023-05-18T11:34:34;21.42;;;9.13;;
44204;SDS011;30163;42.698;23.344;2023-05-18T11:37:09;10.15;;;6.85;;
44204;SDS011;30163;42.698;23.344;2023-05-18T11:39:36;12.27;;;6.57;;
44204;SDS011;30163;42.698;23.344;2023-05-18T11:42:06;11.93;;;5.15;;
44204;SDS011;30163;42.698;23.344;2023-05-18T11:44:31;8.50;;;5.10;;
44204;SDS011;30163;42.698;23.344;2023-05-18T11:49:23;13.27;;;5.28;;
44204;SDS011;30163;42.698;23.344;2023-05-18T11:54:44;13.02;;;4.95;;
44204;SDS011;30163;42.698;23.344;2023-05-18T11:57:13;11.82;;;5.53;;
44204;SDS011;30163;42.698;23.344;2023-05-18T11:59:41;20.40;;;5.55;;
44204;SDS011;30163;42.698;23.344;2023-05-18T12:02:23;14.30;;;4.85;;
44204;SDS011;30163;42.698;23.344;2023-05-18T12:04:56;8.15;;;4.75;;
44204;SDS011;30163;42.698;23.344;2023-05-18T12:07:24;9.60;;;5.03;;
44204;SDS011;30163;42.698;23.344;2023-05-18T12:09:52;9.38;;;4.82;;
44204;SDS011;30163;42.698;23.344;2023-05-18T12:12:37;16.48;;;5.28;;
44204;SDS011;30163;42.698;23.344;2023-05-18T12:15:06;6.20;;;4.60;;
44204;SDS011;30163;42.698;23.344;2023-05-18T12:17:37;11.52;;;5.35;;
44204;SDS011;30163;42.698;23.344;2023-05-18T12:20:04;12.98;;;6.15;;
44204;SDS011;30163;42.698;23.344;2023-05-18T12:22:30;9.23;;;5.20;;
44204;SDS011;30163;42.698;23.344;2023-05-18T12:24:58;12.75;;;4.95;;
44204;SDS011;30163;42.698;23.344;2023-05-18T12:27:24;14.32;;;6.35;;
44204;SDS011;30163;42.698;23.344;2023-05-18T12:29:50;9.27;;;4.40;;
44204;SDS011;30163;42.698;23.344;2023-05-18T12:32:16;19.80;;;6.10;;
44204;SDS011;30163;42.698;23.344;2023-05-18T12:34:42;12.40;;;5.95;;
44204;SDS011;30163;42.698;23.344;2023-05-18T12:37:08;7.40;;;4.25;;
44204;SDS011;30163;42.698;23.344;2023-05-18T12:39:34;11.57;;;5.80;;
44204;SDS011;30163;42.698;23.344;2023-05-18T12:42:11;9.18;;;5.03;;
44204;SDS011;30163;42.698;23.344;2023-05-18T12:44:38;12.85;;;5.45;;
44204;SDS011;30163;42.698;23.344;2023-05-18T12:47:06;14.57;;;5.45;;
44204;SDS011;30163;42.698;23.344;2023-05-18T12:49:38;12.05;;;5.10;;
44204;SDS011;30163;42.698;23.344;2023-05-18T12:52:09;8.13;;;4.47;;
44204;SDS011;30163;42.698;23.344;2023-05-18T12:54:35;10.98;;;6.18;;
44204;SDS011;30163;42.698;23.344;2023-05-18T12:57:06;18.33;;;9.02;;
44204;SDS011;30163;42.698;23.344;2023-05-18T12:59:34;9.98;;;6.03;;
44204;SDS011;30163;42.698;23.344;2023-05-18T13:01:59;6.70;;;4.53;;
44204;SDS011;30163;42.698;23.344;2023-05-18T13:04:32;16.42;;;7.72;;
44204;SDS011;30163;42.698;23.344;2023-05-18T13:07:01;11.57;;;6.43;;
44204;SDS011;30163;42.698;23.344;2023-05-18T13:09:30;7.28;;;5.43;;
44204;SDS011;30163;42.698;23.344;2023-05-18T13:11:58;16.05;;;7.25;;
44204;SDS011;30163;42.698;23.344;2023-05-18T13:14:25;10.82;;;7.05;;
44204;SDS011;30163;42.698;23.344;2023-05-18T13:16:51;14.13;;;6.30;;
44204;SDS011;30163;42.698;23.344;2023-05-18T13:19:17;13.30;;;5.57;;
44204;SDS011;30163;42.698;23.344;2023-05-18T13:21:43;9.43;;;4.82;;
44204;SDS011;30163;42.698;23.344;2023-05-18T13:24:10;18.70;;;5.88;;
44204;SDS011;30163;42.698;23.344;2023-05-18T13:26:38;7.72;;;4.45;;
44204;SDS011;30163;42.698;23.344;2023-05-18T13:29:05;11.55;;;4.57;;
44204;SDS011;30163;42.698;23.344;2023-05-18T13:31:31;12.80;;;3.75;;
44204;SDS011;30163;42.698;23.344;2023-05-18T13:33:57;7.45;;;4.25;;
44204;SDS011;30163;42.698;23.344;2023-05-18T13:36:22;4.63;;;2.80;;
44204;SDS011;30163;42.698;23.344;2023-05-18T13:38:48;6.88;;;4.00;;
44204;SDS011;30163;42.698;23.344;2023-05-18T13:41:14;5.07;;;3.08;;
44204;SDS011;30163;42.698;23.344;2023-05-18T13:43:40;5.90;;;3.65;;
44204;SDS011;30163;42.698;23.344;2023-05-18T13:46:08;5.10;;;3.75;;
44204;SDS011;30163;42.698;23.344;2023-05-18T13:48:36;6.00;;;3.33;;
44204;SDS011;30163;42.698;23.344;2023-05-18T13:51:02;2.97;;;2.25;;
44204;SDS011;30163;42.698;23.344;2023-05-18T13:53:30;9.57;;;3.17;;
44204;SDS011;30163;42.698;23.344;2023-05-18T13:55:56;3.15;;;2.25;;
44204;SDS011;30163;42.698;23.344;2023-05-18T13:58:22;8.60;;;3.10;;
44204;SDS011;30163;42.698;23.344;2023-05-18T14:00:47;8.02;;;3.47;;
44204;SDS011;30163;42.698;23.344;2023-05-18T14:03:16;10.60;;;4.55;;
44204;SDS011;30163;42.698;23.344;2023-05-18T14:05:41;10.43;;;4.05;;
44204;SDS011;30163;42.698;23.344;2023-05-18T14:08:10;5.35;;;3.50;;
44204;SDS011;30163;42.698;23.344;2023-05-18T14:10:35;7.75;;;3.10;;
44204;SDS011;30163;42.698;23.344;2023-05-18T14:13:01;6.80;;;3.58;;
44204;SDS011;30163;42.698;23.344;2023-05-18T14:15:33;5.45;;;3.40;;
44204;SDS011;30163;42.698;23.344;2023-05-18T14:17:58;6.82;;;3.40;;
44204;SDS011;30163;42.698;23.344;2023-05-18T14:20:24;6.75;;;3.28;;
44204;SDS011;30163;42.698;23.344;2023-05-18T14:22:53;10.20;;;3.47;;
44204;SDS011;30163;42.698;23.344;2023-05-18T14:25:18;10.30;;;3.90;;
44204;SDS011;30163;42.698;23.344;2023-05-18T14:27:47;7.97;;;2.85;;
44204;SDS011;30163;42.698;23.344;2023-05-18T14:30:12;5.15;;;3.03;;
44204;SDS011;30163;42.698;23.344;2023-05-18T14:32:41;5.68;;;3.53;;
44204;SDS011;30163;42.698;23.344;2023-05-18T14:35:06;11.82;;;4.18;;
44204;SDS011;30163;42.698;23.344;2023-05-18T14:37:32;8.05;;;3.35;;
44204;SDS011;30163;42.698;23.344;2023-05-18T14:39:58;10.73;;;3.30;;
44204;SDS011;30163;42.698;23.344;2023-05-18T14:42:24;7.95;;;3.65;;
44204;SDS011;30163;42.698;23.344;2023-05-18T14:44:50;9.02;;;4.38;;
44204;SDS011;30163;42.698;23.344;2023-05-18T14:47:18;13.05;;;4.63;;
44204;SDS011;30163;42.698;23.344;2023-05-18T14:49:44;8.98;;;4.72;;
44204;SDS011;30163;42.698;23.344;2023-05-18T14:52:09;8.18;;;5.25;;
44204;SDS011;30163;42.698;23.344;2023-05-18T14:54:35;8.70;;;4.80;;
44204;SDS011;30163;42.698;23.344;2023-05-18T14:57:00;10.00;;;5.60;;
44204;SDS011;30163;42.698;23.344;2023-05-18T14:59:26;10.93;;;5.65;;
44204;SDS011;30163;42.698;23.344;2023-05-18T15:01:52;9.55;;;5.50;;